createdAt,value
2018-06-18T00:01:48.587Z,54.84
2018-06-18T00:04:14.564Z,54.14
2018-06-18T00:06:40.538Z,54.73
2018-06-18T00:09:06.511Z,54.81
2018-06-18T00:11:32.683Z,54.58
2018-06-18T00:13:58.669Z,54.35
2018-06-18T00:16:24.625Z,54.34
2018-06-18T00:18:50.619Z,54.29
2018-06-18T00:21:16.672Z,54.65
2018-06-18T00:23:42.644Z,54.52
2018-06-18T00:26:08.620Z,54.56
2018-06-18T00:28:34.593Z,55.50
2018-06-18T00:31:00.638Z,54.33
2018-06-18T00:33:26.662Z,55.33
2018-06-18T00:35:54.747Z,55.70
2018-06-18T00:38:20.727Z,55.22
2018-06-18T00:40:46.736Z,55.14
2018-06-18T00:43:12.715Z,55.11
2018-06-18T00:45:38.699Z,54.66
2018-06-18T00:48:04.700Z,54.89
2018-06-18T00:50:30.630Z,55.32
2018-06-18T00:52:56.612Z,55.85
2018-06-18T00:55:22.578Z,55.74
2018-06-18T00:57:48.575Z,54.83
2018-06-18T01:00:14.573Z,54.75
2018-06-18T01:02:40.531Z,54.37
2018-06-18T01:05:06.504Z,55.12
2018-06-18T01:07:32.468Z,54.65
2018-06-18T01:10:00.475Z,54.82
2018-06-18T01:12:26.471Z,54.80
2018-06-18T01:14:52.456Z,54.86
2018-06-18T01:17:18.471Z,56.05
2018-06-18T01:19:44.460Z,55.38
2018-06-18T01:22:10.438Z,55.12
2018-06-18T01:24:36.444Z,55.52
2018-06-18T01:27:02.448Z,55.07
2018-06-18T01:29:28.450Z,56.73
2018-06-18T01:31:54.437Z,55.82
2018-06-18T01:34:20.428Z,56.18
2018-06-18T01:36:46.414Z,55.13
2018-06-18T01:39:12.422Z,55.64
2018-06-18T01:41:38.377Z,55.11
2018-06-18T01:44:04.334Z,55.11
2018-06-18T01:46:30.301Z,55.31
2018-06-18T01:48:56.314Z,55.83
2018-06-18T01:51:22.299Z,55.62
2018-06-18T01:53:48.280Z,55.06
2018-06-18T01:56:14.268Z,55.26
2018-06-18T01:58:40.254Z,55.19
2018-06-18T02:01:06.228Z,56.08
2018-06-18T02:03:32.204Z,56.17
2018-06-18T02:05:58.179Z,56.61
2018-06-18T02:08:24.171Z,56.60
2018-06-18T02:10:50.172Z,56.67
2018-06-18T02:13:16.154Z,55.12
2018-06-18T02:15:42.141Z,55.33
2018-06-18T02:18:08.125Z,55.30
2018-06-18T02:20:34.100Z,55.77
2018-06-18T02:23:00.136Z,55.32
2018-06-18T02:25:26.138Z,56.03
2018-06-18T02:27:52.123Z,55.99
2018-06-18T02:30:18.102Z,56.26
2018-06-18T02:32:44.071Z,55.02
2018-06-18T02:35:10.069Z,55.47
2018-06-18T02:37:36.064Z,55.57
2018-06-18T02:40:02.061Z,55.86
2018-06-18T02:42:28.099Z,55.66
2018-06-18T02:44:54.067Z,55.47
2018-06-18T02:47:20.039Z,55.79
2018-06-18T02:49:45.985Z,56.55
2018-06-18T02:52:11.977Z,56.50
2018-06-18T02:54:37.960Z,56.13
2018-06-18T02:57:03.923Z,55.95
2018-06-18T02:59:29.899Z,57.00
2018-06-18T03:01:55.871Z,56.43
2018-06-18T03:04:21.831Z,56.28
2018-06-18T03:06:47.832Z,56.13
2018-06-18T03:09:13.860Z,55.72
2018-06-18T03:11:39.847Z,55.71
2018-06-18T03:14:05.838Z,55.65
2018-06-18T03:16:31.895Z,56.48
2018-06-18T03:18:57.855Z,55.51
2018-06-18T03:21:23.826Z,55.82
2018-06-18T03:23:49.808Z,56.52
2018-06-18T03:26:15.776Z,56.72
2018-06-18T03:28:41.776Z,56.42
2018-06-18T03:31:07.783Z,55.59
2018-06-18T03:33:33.767Z,56.01
2018-06-18T03:35:59.747Z,56.52
2018-06-18T03:38:25.700Z,56.55
2018-06-18T03:40:51.709Z,56.20
2018-06-18T03:43:17.769Z,56.41
2018-06-18T03:45:43.743Z,56.61
2018-06-18T03:48:09.704Z,56.44
2018-06-18T03:50:35.713Z,57.02
2018-06-18T03:53:01.701Z,55.26
2018-06-18T03:55:27.834Z,56.63
2018-06-18T03:57:53.816Z,56.09
2018-06-18T04:00:19.788Z,56.51
2018-06-18T04:02:45.775Z,56.09
2018-06-18T04:05:11.889Z,56.20
2018-06-18T04:07:37.840Z,55.98
2018-06-18T04:10:03.845Z,55.84
2018-06-18T04:12:29.919Z,56.23
2018-06-18T04:14:55.921Z,55.94
2018-06-18T04:17:21.916Z,56.66
2018-06-18T04:19:47.996Z,55.84
2018-06-18T04:22:13.974Z,56.66
2018-06-18T04:24:39.982Z,55.50
2018-06-18T04:27:05.944Z,56.11
2018-06-18T04:29:31.984Z,55.66
2018-06-18T04:31:57.979Z,56.95
2018-06-18T04:34:23.964Z,55.76
2018-06-18T04:36:49.969Z,56.71
2018-06-18T04:39:15.952Z,55.97
2018-06-18T04:41:41.914Z,56.18
2018-06-18T04:44:07.942Z,55.45
2018-06-18T04:46:33.921Z,56.27
2018-06-18T04:48:59.900Z,56.49
2018-06-18T04:51:25.884Z,56.40
2018-06-18T04:53:51.866Z,56.55
2018-06-18T04:56:17.830Z,56.61
2018-06-18T04:58:43.796Z,56.46
2018-06-18T05:01:09.778Z,56.11
2018-06-18T05:03:35.761Z,56.46
2018-06-18T05:06:01.772Z,56.13
2018-06-18T05:08:27.777Z,56.78
2018-06-18T05:10:53.768Z,56.12
2018-06-18T05:13:19.730Z,55.87
2018-06-18T05:15:45.846Z,56.71
2018-06-18T05:18:11.812Z,56.76
2018-06-18T05:20:37.838Z,55.97
2018-06-18T05:23:03.757Z,56.49
2018-06-18T05:25:29.712Z,55.61
2018-06-18T05:27:55.694Z,55.97
2018-06-18T05:30:21.675Z,57.02
2018-06-18T05:32:47.664Z,56.83
2018-06-18T05:35:13.651Z,56.79
2018-06-18T05:37:39.623Z,56.33
2018-06-18T05:40:05.629Z,57.61
2018-06-18T05:42:31.632Z,56.49
2018-06-18T05:44:57.596Z,56.49
2018-06-18T05:47:23.576Z,56.80
2018-06-18T05:49:49.639Z,56.41
2018-06-18T05:52:15.674Z,57.13
2018-06-18T05:54:41.683Z,56.94
2018-06-18T05:57:07.732Z,56.90
2018-06-18T05:59:33.725Z,56.48
2018-06-18T06:01:59.781Z,56.23
2018-06-18T06:04:25.758Z,56.65
2018-06-18T06:06:51.738Z,56.66
2018-06-18T06:09:17.700Z,57.32
2018-06-18T06:11:43.669Z,56.90
2018-06-18T06:14:09.639Z,57.22
2018-06-18T06:16:35.612Z,55.85
2018-06-18T06:19:01.631Z,56.55
2018-06-18T06:21:27.662Z,58.66
2018-06-18T06:23:53.644Z,56.30
2018-06-18T06:26:19.650Z,58.08
2018-06-18T06:28:45.666Z,57.28
2018-06-18T06:31:11.705Z,57.55
2018-06-18T06:33:37.664Z,57.29
2018-06-18T06:36:03.648Z,57.12
2018-06-18T06:38:29.603Z,57.29
2018-06-18T06:40:55.576Z,57.28
2018-06-18T06:43:21.542Z,56.71
2018-06-18T06:45:47.514Z,56.79
2018-06-18T06:48:13.483Z,55.83
2018-06-18T06:50:39.468Z,56.40
2018-06-18T06:53:05.427Z,57.14
2018-06-18T06:55:31.439Z,56.88
2018-06-18T06:57:57.396Z,56.31
2018-06-18T07:00:23.416Z,56.45
2018-06-18T07:02:49.403Z,56.32
2018-06-18T07:05:15.415Z,56.75
2018-06-18T07:07:41.446Z,56.39
2018-06-18T07:10:07.413Z,56.88
2018-06-18T07:12:33.373Z,56.53
2018-06-18T07:14:59.345Z,57.01
2018-06-18T07:17:25.324Z,57.53
2018-06-18T07:19:51.305Z,57.63
2018-06-18T07:22:17.313Z,56.68
2018-06-18T07:24:43.332Z,56.92
2018-06-18T07:27:09.298Z,56.12
2018-06-18T07:29:35.265Z,56.34
2018-06-18T07:32:01.261Z,55.97
2018-06-18T07:34:27.223Z,57.81
2018-06-18T07:36:53.209Z,56.48
2018-06-18T07:39:19.187Z,56.52
2018-06-18T07:41:45.175Z,56.71
2018-06-18T07:44:11.148Z,57.24
2018-06-18T07:46:37.132Z,56.84
2018-06-18T07:49:03.114Z,57.05
2018-06-18T07:51:29.114Z,57.20
2018-06-18T07:53:55.178Z,57.27
2018-06-18T07:56:21.204Z,56.70
2018-06-18T07:58:47.199Z,57.17
2018-06-18T08:01:13.175Z,57.00
2018-06-18T08:03:39.191Z,57.16
2018-06-18T08:06:05.226Z,55.99
2018-06-18T08:08:31.208Z,56.46
2018-06-18T08:10:57.187Z,56.67
2018-06-18T08:13:23.150Z,56.77
2018-06-18T08:15:49.113Z,56.28
2018-06-18T08:18:15.096Z,56.83
2018-06-18T08:20:41.090Z,56.36
2018-06-18T08:23:07.079Z,57.05
2018-06-18T08:25:33.086Z,56.84
2018-06-18T08:27:59.052Z,56.88
2018-06-18T08:30:26.061Z,57.19
2018-06-18T08:32:52.029Z,57.11
2018-06-18T08:35:18.006Z,57.26
2018-06-18T08:37:44.024Z,57.03
2018-06-18T08:40:10.001Z,56.07
2018-06-18T08:42:35.989Z,55.80
2018-06-18T08:45:01.960Z,55.16
2018-06-18T08:47:27.938Z,55.64
2018-06-18T08:49:53.909Z,55.82
2018-06-18T08:52:21.134Z,54.72
2018-06-18T08:54:47.117Z,55.87
2018-06-18T08:57:13.094Z,55.62
2018-06-18T08:59:39.062Z,55.02
2018-06-18T09:02:05.053Z,54.70
2018-06-18T09:04:31.043Z,55.23
2018-06-18T09:06:57.076Z,54.91
2018-06-18T09:09:23.117Z,54.40
2018-06-18T09:11:49.082Z,54.90
2018-06-18T09:14:15.065Z,54.58
2018-06-18T09:16:40.984Z,54.38
2018-06-18T09:19:06.987Z,54.67
2018-06-18T09:21:32.944Z,54.36
2018-06-18T09:23:58.947Z,54.48
2018-06-18T09:26:24.936Z,55.30
2018-06-18T09:28:50.914Z,55.03
2018-06-18T09:31:16.890Z,54.33
2018-06-18T09:33:42.859Z,54.68
2018-06-18T09:36:08.853Z,54.27
2018-06-18T09:38:34.827Z,54.84
2018-06-18T09:41:00.836Z,54.26
2018-06-18T09:43:26.826Z,54.68
2018-06-18T09:45:52.795Z,55.74
2018-06-18T09:48:18.772Z,53.99
2018-06-18T09:50:44.729Z,55.19
2018-06-18T09:53:10.749Z,54.93
2018-06-18T09:55:36.769Z,54.54
2018-06-18T09:58:02.768Z,54.85
2018-06-18T10:00:28.730Z,53.85
2018-06-18T10:02:54.712Z,54.88
2018-06-18T10:05:20.684Z,54.43
2018-06-18T10:07:46.696Z,53.96
2018-06-18T10:10:12.650Z,54.17
2018-06-18T10:12:38.647Z,53.75
2018-06-18T10:15:04.614Z,55.01
2018-06-18T10:17:30.572Z,54.68
2018-06-18T10:19:56.522Z,54.41
2018-06-18T10:22:22.465Z,54.85
2018-06-18T10:24:48.427Z,54.17
2018-06-18T10:27:14.400Z,54.72
2018-06-18T10:29:40.383Z,54.42
2018-06-18T10:32:06.397Z,55.15
2018-06-18T10:34:32.378Z,55.68
2018-06-18T10:36:58.378Z,54.42
2018-06-18T10:39:24.346Z,54.92
2018-06-18T10:41:50.312Z,54.93
2018-06-18T10:44:16.319Z,54.62
2018-06-18T10:46:42.267Z,55.04
2018-06-18T10:49:08.262Z,54.93
2018-06-18T10:51:34.273Z,55.26
2018-06-18T10:54:00.237Z,55.21
2018-06-18T10:56:26.214Z,55.21
2018-06-18T10:58:52.188Z,53.73
2018-06-18T11:01:18.173Z,54.65
2018-06-18T11:03:44.161Z,55.32
2018-06-18T11:06:10.152Z,55.39
2018-06-18T11:08:36.148Z,55.31
2018-06-18T11:11:02.181Z,55.14
2018-06-18T11:13:28.179Z,54.41
2018-06-18T11:15:54.233Z,55.24
2018-06-18T11:18:20.184Z,54.59
2018-06-18T11:20:46.163Z,54.89
2018-06-18T11:23:12.171Z,54.33
2018-06-18T11:25:38.163Z,55.07
2018-06-18T11:28:04.150Z,55.04
2018-06-18T11:30:30.171Z,54.48
2018-06-18T11:32:56.140Z,54.94
2018-06-18T11:35:22.144Z,54.71
2018-06-18T11:37:48.135Z,54.68
2018-06-18T11:40:14.129Z,55.46
2018-06-18T11:42:40.125Z,55.40
2018-06-18T11:45:06.085Z,55.26
2018-06-18T11:47:32.184Z,54.51
2018-06-18T11:49:58.162Z,54.92
2018-06-18T11:52:24.140Z,54.11
2018-06-18T11:54:50.094Z,54.47
2018-06-18T11:57:16.064Z,54.08
2018-06-18T11:59:42.054Z,54.48
2018-06-18T12:02:08.038Z,55.18
2018-06-18T12:04:34.004Z,55.23
2018-06-18T12:07:00.153Z,54.79
2018-06-18T12:09:26.129Z,55.64
2018-06-18T12:11:52.120Z,55.62
2018-06-18T12:14:18.110Z,55.10
2018-06-18T12:16:44.095Z,55.09
2018-06-18T12:19:10.077Z,55.48
2018-06-18T12:21:36.036Z,55.31
2018-06-18T12:24:02.020Z,55.46
2018-06-18T12:26:27.978Z,56.54
2018-06-18T12:28:53.994Z,56.34
2018-06-18T12:31:19.940Z,56.29
2018-06-18T12:33:45.940Z,56.15
2018-06-18T12:36:11.906Z,55.73
2018-06-18T12:38:37.871Z,56.07
2018-06-18T12:41:03.914Z,55.34
2018-06-18T12:43:29.838Z,56.21
2018-06-18T12:45:55.831Z,56.00
2018-06-18T12:48:21.807Z,55.99
2018-06-18T12:50:47.788Z,56.41
2018-06-18T12:53:13.953Z,57.37
2018-06-18T12:55:39.854Z,56.37
2018-06-18T12:58:05.816Z,56.74
2018-06-18T13:00:31.763Z,56.49
2018-06-18T13:02:57.728Z,55.36
2018-06-18T13:05:23.686Z,56.04
2018-06-18T13:07:49.700Z,56.67
2018-06-18T13:10:15.724Z,56.57
2018-06-18T13:12:41.645Z,56.48
2018-06-18T13:15:07.616Z,56.55
2018-06-18T13:17:33.594Z,56.46
2018-06-18T13:19:59.620Z,57.50
2018-06-18T13:22:25.611Z,56.18
2018-06-18T13:24:51.580Z,56.48
2018-06-18T13:27:17.589Z,57.04
2018-06-18T13:29:43.520Z,57.03
2018-06-18T13:32:09.590Z,57.66
2018-06-18T13:34:35.580Z,56.48
2018-06-18T13:37:01.575Z,57.02
2018-06-18T13:39:27.558Z,57.16
2018-06-18T13:41:53.539Z,57.70
2018-06-18T13:44:19.512Z,57.36
2018-06-18T13:46:45.532Z,56.63
2018-06-18T13:49:11.518Z,57.27
2018-06-18T13:51:37.501Z,57.25
2018-06-18T13:54:03.486Z,57.49
2018-06-18T13:56:29.475Z,58.24
2018-06-18T13:58:55.448Z,58.29
2018-06-18T14:01:21.461Z,57.14
2018-06-18T14:03:47.441Z,58.49
2018-06-18T14:06:13.418Z,57.86
2018-06-18T14:08:39.410Z,57.73
2018-06-18T14:11:05.364Z,58.80
2018-06-18T14:13:31.369Z,58.22
2018-06-18T14:15:57.333Z,58.30
2018-06-18T14:18:23.362Z,59.19
2018-06-18T14:20:49.326Z,58.12
2018-06-18T14:23:15.285Z,57.52
2018-06-18T14:25:41.351Z,58.14
2018-06-18T14:28:07.323Z,57.92
2018-06-18T14:30:33.350Z,57.54
2018-06-18T14:32:59.334Z,58.52
2018-06-18T14:35:25.308Z,57.41
2018-06-18T14:37:51.308Z,58.15
2018-06-18T14:40:17.300Z,57.34
2018-06-18T14:42:43.346Z,58.16
2018-06-18T14:45:09.316Z,57.23
2018-06-18T14:47:35.324Z,57.71
2018-06-18T14:50:01.287Z,58.60
2018-06-18T14:52:27.376Z,57.93
2018-06-18T14:54:53.285Z,58.75
2018-06-18T14:57:19.364Z,58.16
2018-06-18T14:59:45.394Z,57.77
2018-06-18T15:02:11.416Z,58.10
2018-06-18T15:04:37.554Z,58.74
2018-06-18T15:07:03.642Z,58.75
2018-06-18T15:09:29.802Z,59.33
2018-06-18T15:11:55.597Z,58.74
2018-06-18T15:14:21.912Z,58.32
2018-06-18T15:16:48.113Z,58.31
2018-06-18T15:19:14.157Z,57.96
2018-06-18T15:21:40.082Z,58.55
2018-06-18T15:24:06.043Z,58.74
2018-06-18T15:26:32.052Z,59.15
2018-06-18T15:28:58.012Z,58.13
2018-06-18T15:31:24.016Z,58.01
2018-06-18T15:33:49.979Z,58.99
2018-06-18T15:36:15.972Z,59.07
2018-06-18T15:38:41.928Z,57.88
2018-06-18T15:41:07.889Z,59.06
2018-06-18T15:43:33.861Z,58.39
2018-06-18T15:45:59.879Z,58.58
2018-06-18T15:48:25.852Z,58.87
2018-06-18T15:50:51.862Z,58.76
2018-06-18T15:53:17.809Z,59.21
2018-06-18T15:55:43.788Z,59.02
2018-06-18T15:58:09.924Z,59.06
2018-06-18T16:00:35.881Z,58.48
2018-06-18T16:03:01.897Z,58.97
2018-06-18T16:05:27.875Z,58.96
2018-06-18T16:07:53.862Z,59.41
2018-06-18T16:10:19.858Z,59.52
2018-06-18T16:12:45.899Z,59.69
2018-06-18T16:15:11.896Z,59.37
2018-06-18T16:17:37.884Z,59.59
2018-06-18T16:20:03.888Z,58.78
2018-06-18T16:22:30.025Z,59.90
2018-06-18T16:24:56.045Z,58.82
2018-06-18T16:27:21.980Z,59.19
2018-06-18T16:29:47.949Z,59.07
2018-06-18T16:32:13.925Z,58.32
2018-06-18T16:34:39.936Z,58.64
2018-06-18T16:37:05.918Z,59.02
2018-06-18T16:39:31.891Z,58.88
2018-06-18T16:41:57.851Z,58.99
2018-06-18T16:44:23.841Z,59.25
2018-06-18T16:46:49.833Z,58.10
2018-06-18T16:49:15.811Z,59.19
2018-06-18T16:51:41.821Z,58.54
2018-06-18T16:54:07.803Z,58.09
2018-06-18T16:56:33.812Z,59.32
2018-06-18T16:58:59.761Z,57.88
2018-06-18T17:01:25.767Z,57.75
2018-06-18T17:03:51.731Z,58.29
2018-06-18T17:06:17.726Z,58.14
2018-06-18T17:08:43.807Z,58.44
2018-06-18T17:11:09.800Z,58.31
2018-06-18T17:13:35.774Z,57.95
2018-06-18T17:16:01.746Z,58.12
2018-06-18T17:18:27.745Z,58.40
2018-06-18T17:20:53.727Z,57.38
2018-06-18T17:23:19.786Z,57.61
2018-06-18T17:25:45.726Z,58.20
2018-06-18T17:28:11.739Z,57.77
2018-06-18T17:30:37.740Z,57.99
2018-06-18T17:33:03.834Z,58.42
2018-06-18T17:35:29.805Z,57.47
2018-06-18T17:37:55.814Z,58.97
2018-06-18T17:40:21.757Z,57.79
2018-06-18T17:42:47.748Z,57.54
2018-06-18T17:45:13.775Z,58.74
2018-06-18T17:47:39.753Z,58.40
2018-06-18T17:50:05.764Z,58.42
2018-06-18T17:52:31.731Z,57.95
2018-06-18T17:54:57.790Z,58.22
2018-06-18T17:57:23.779Z,57.95
2018-06-18T17:59:49.773Z,58.55
2018-06-18T18:02:15.770Z,58.76
2018-06-18T18:04:41.756Z,58.14
2018-06-18T18:07:07.755Z,58.24
2018-06-18T18:09:33.732Z,59.02
2018-06-18T18:11:59.703Z,58.32
2018-06-18T18:14:25.692Z,59.11
2018-06-18T18:16:51.716Z,57.91
2018-06-18T18:19:17.701Z,59.28
2018-06-18T18:21:43.716Z,58.45
2018-06-18T18:24:09.808Z,58.47
2018-06-18T18:26:35.835Z,57.79
2018-06-18T18:29:01.861Z,58.79
2018-06-18T18:31:27.828Z,58.75
2018-06-18T18:33:53.818Z,58.21
2018-06-18T18:36:19.810Z,58.05
2018-06-18T18:38:45.899Z,57.71
2018-06-18T18:41:11.907Z,58.52
2018-06-18T18:43:37.911Z,58.92
2018-06-18T18:46:03.884Z,57.95
2018-06-18T18:48:29.863Z,59.17
2018-06-18T18:50:55.834Z,58.79
2018-06-18T18:53:21.804Z,58.38
2018-06-18T18:55:47.808Z,58.56
2018-06-18T18:58:13.796Z,59.73
2018-06-18T19:00:39.781Z,59.57
2018-06-18T19:03:05.928Z,58.64
2018-06-18T19:05:31.956Z,58.85
2018-06-18T19:07:57.919Z,59.32
2018-06-18T19:10:23.953Z,58.95
2018-06-18T19:12:49.936Z,59.56
2018-06-18T19:15:15.935Z,59.57
2018-06-18T19:17:41.907Z,59.55
2018-06-18T19:20:07.896Z,59.21
2018-06-18T19:22:33.862Z,58.68
2018-06-18T19:24:59.849Z,59.47
2018-06-18T19:27:25.822Z,59.54
2018-06-18T19:29:51.797Z,58.50
2018-06-18T19:32:17.871Z,59.44
2018-06-18T19:34:43.942Z,58.55
2018-06-18T19:37:09.925Z,58.99
2018-06-18T19:39:35.884Z,58.73
2018-06-18T19:42:01.914Z,59.26
2018-06-18T19:44:28.144Z,58.72
2018-06-18T19:46:54.104Z,59.43
2018-06-18T19:49:20.079Z,60.04
2018-06-18T19:51:46.135Z,59.43
2018-06-18T19:54:12.173Z,58.37
2018-06-18T19:56:38.140Z,59.49
2018-06-18T19:59:04.230Z,58.61
2018-06-18T20:01:30.256Z,58.97
2018-06-18T20:03:56.259Z,59.22
2018-06-18T20:06:22.314Z,60.28
2018-06-18T20:08:48.267Z,58.83
2018-06-18T20:11:14.260Z,59.12
2018-06-18T20:13:40.224Z,59.79
2018-06-18T20:16:06.212Z,59.65
2018-06-18T20:18:32.201Z,58.99
2018-06-18T20:20:58.160Z,58.63
2018-06-18T20:23:24.220Z,59.30
2018-06-18T20:25:50.202Z,59.42
2018-06-18T20:28:16.208Z,59.36
2018-06-18T20:30:42.175Z,58.65
2018-06-18T20:33:08.246Z,59.68
2018-06-18T20:35:34.234Z,59.80
2018-06-18T20:38:00.231Z,58.72
2018-06-18T20:40:26.213Z,59.01
2018-06-18T20:42:52.179Z,58.89
2018-06-18T20:45:18.155Z,59.24
2018-06-18T20:47:44.131Z,58.74
2018-06-18T20:50:10.128Z,58.88
2018-06-18T20:52:36.096Z,58.78
2018-06-18T20:55:02.133Z,59.51
2018-06-18T20:57:28.135Z,60.23
2018-06-18T20:59:54.141Z,58.90
2018-06-18T21:02:20.147Z,59.31
2018-06-18T21:04:46.156Z,59.48
2018-06-18T21:07:12.138Z,59.41
2018-06-18T21:09:38.149Z,59.05
2018-06-18T21:12:04.121Z,59.94
2018-06-18T21:14:30.095Z,59.11
2018-06-18T21:16:56.048Z,59.95
2018-06-18T21:19:22.029Z,59.77
2018-06-18T21:21:47.990Z,60.03
2018-06-18T21:24:13.982Z,59.89
2018-06-18T21:26:39.971Z,59.19
2018-06-18T21:29:05.922Z,59.86
2018-06-18T21:31:31.906Z,59.56
2018-06-18T21:33:57.899Z,59.58
2018-06-18T21:36:23.870Z,59.38
2018-06-18T21:38:49.861Z,59.34
2018-06-18T21:41:15.834Z,59.28
2018-06-18T21:43:41.825Z,59.82
2018-06-18T21:46:07.808Z,60.18
2018-06-18T21:48:33.774Z,59.50
2018-06-18T21:50:59.782Z,59.68
2018-06-18T21:53:25.768Z,59.11
2018-06-18T21:55:51.770Z,60.19
2018-06-18T21:58:17.742Z,59.42
2018-06-18T22:00:43.813Z,59.63
2018-06-18T22:03:09.733Z,58.85
2018-06-18T22:05:35.797Z,60.05
2018-06-18T22:08:01.752Z,59.35
2018-06-18T22:10:27.735Z,59.98
2018-06-18T22:12:53.730Z,59.26
2018-06-18T22:15:19.701Z,59.86
2018-06-18T22:17:45.688Z,59.23
2018-06-18T22:20:11.883Z,60.26
2018-06-18T22:22:37.849Z,59.77
2018-06-18T22:25:03.874Z,59.09
2018-06-18T22:27:29.838Z,60.02
2018-06-18T22:29:55.822Z,59.82
2018-06-18T22:32:21.814Z,59.73
2018-06-18T22:34:47.793Z,59.75
2018-06-18T22:37:13.768Z,59.81
2018-06-18T22:39:39.798Z,59.23
2018-06-18T22:42:05.775Z,59.86
2018-06-18T22:44:31.717Z,59.67
2018-06-18T22:46:57.671Z,59.89
2018-06-18T22:49:23.694Z,60.03
2018-06-18T22:51:49.741Z,59.32
2018-06-18T22:54:15.715Z,59.99
2018-06-18T22:56:41.697Z,59.71
2018-06-18T22:59:07.677Z,60.79
2018-06-18T23:01:33.640Z,59.99
2018-06-18T23:03:59.593Z,59.55
2018-06-18T23:06:25.571Z,59.12
2018-06-18T23:08:51.545Z,59.53
2018-06-18T23:11:17.513Z,59.26
2018-06-18T23:13:43.483Z,59.12
2018-06-18T23:16:09.435Z,59.65
2018-06-18T23:18:35.396Z,59.30
2018-06-18T23:21:01.379Z,59.03
2018-06-18T23:23:27.353Z,60.18
2018-06-18T23:25:53.293Z,59.37
2018-06-18T23:28:19.269Z,60.02
2018-06-18T23:30:45.243Z,60.05
2018-06-18T23:33:11.207Z,59.26
2018-06-18T23:35:37.191Z,59.99
2018-06-18T23:38:03.161Z,59.62
2018-06-18T23:40:29.155Z,59.54
2018-06-18T23:42:55.123Z,59.38
2018-06-18T23:45:21.116Z,59.15
2018-06-18T23:47:47.093Z,59.17
2018-06-18T23:50:13.083Z,59.61
2018-06-18T23:52:39.065Z,59.38
2018-06-18T23:55:05.174Z,60.48
2018-06-18T23:57:31.141Z,59.49
2018-06-18T23:59:57.091Z,60.08
